sensor_id;sensor_type;location;lat;lon;timestamp;temperature;humidity
7461;DHT22;6757;52.258;12.840;2024-03-29T00:02:01;6.30;99.90
7461;DHT22;6757;52.258;12.840;2024-03-29T00:04:27;6.20;99.90
7461;DHT22;6757;52.258;12.840;2024-03-29T00:06:53;6.20;99.90
7461;DHT22;6757;52.258;12.840;2024-03-29T00:09:19;6.20;99.90
7461;DHT22;6757;52.258;12.840;2024-03-29T00:11:47;5.50;99.90
7461;DHT22;6757;52.258;12.840;2024-03-29T00:14:12;6.20;99.90
7461;DHT22;6757;52.258;12.840;2024-03-29T00:16:38;6.00;99.90
7461;DHT22;6757;52.258;12.840;2024-03-29T00:19:04;6.10;99.90
7461;DHT22;6757;52.258;12.840;2024-03-29T00:21:30;7.10;99.90
7461;DHT22;6757;52.258;12.840;2024-03-29T00:23:56;6.10;99.90
7461;DHT22;6757;52.258;12.840;2024-03-29T00:26:22;6.30;99.90
7461;DHT22;6757;52.258;12.840;2024-03-29T00:28:49;6.10;99.90
7461;DHT22;6757;52.258;12.840;2024-03-29T00:31:15;6.10;99.90
7461;DHT22;6757;52.258;12.840;2024-03-29T00:33:41;5.90;99.90
7461;DHT22;6757;52.258;12.840;2024-03-29T00:36:08;6.10;99.90
7461;DHT22;6757;52.258;12.840;2024-03-29T00:38:34;6.00;99.90
7461;DHT22;6757;52.258;12.840;2024-03-29T00:41:00;6.00;99.90
7461;DHT22;6757;52.258;12.840;2024-03-29T00:43:26;6.00;99.90
7461;DHT22;6757;52.258;12.840;2024-03-29T00:45:53;5.80;99.90
7461;DHT22;6757;52.258;12.840;2024-03-29T00:48:19;5.90;99.90
7461;DHT22;6757;52.258;12.840;2024-03-29T00:50:45;5.90;99.90
7461;DHT22;6757;52.258;12.840;2024-03-29T00:53:10;5.90;99.90
7461;DHT22;6757;52.258;12.840;2024-03-29T00:55:36;5.80;99.90
7461;DHT22;6757;52.258;12.840;2024-03-29T00:58:02;5.70;99.90
7461;DHT22;6757;52.258;12.840;2024-03-29T01:00:28;5.70;99.90
7461;DHT22;6757;52.258;12.840;2024-03-29T01:02:55;5.70;99.90
7461;DHT22;6757;52.258;12.840;2024-03-29T01:05:21;5.70;99.90
7461;DHT22;6757;52.258;12.840;2024-03-29T01:07:47;5.50;99.90
7461;DHT22;6757;52.258;12.840;2024-03-29T01:10:13;5.50;99.90
7461;DHT22;6757;52.258;12.840;2024-03-29T01:12:39;5.50;99.90
7461;DHT22;6757;52.258;12.840;2024-03-29T01:15:05;5.30;99.90
7461;DHT22;6757;52.258;12.840;2024-03-29T01:17:31;5.40;99.90
7461;DHT22;6757;52.258;12.840;2024-03-29T01:19:59;5.40;99.90
7461;DHT22;6757;52.258;12.840;2024-03-29T01:22:26;5.20;99.90
7461;DHT22;6757;52.258;12.840;2024-03-29T01:24:52;5.30;99.90
7461;DHT22;6757;52.258;12.840;2024-03-29T01:27:17;5.20;99.90
7461;DHT22;6757;52.258;12.840;2024-03-29T01:29:43;5.20;99.90
7461;DHT22;6757;52.258;12.840;2024-03-29T01:32:09;5.20;99.90
7461;DHT22;6757;52.258;12.840;2024-03-29T01:34:35;4.90;99.90
7461;DHT22;6757;52.258;12.840;2024-03-29T01:37:02;5.10;99.90
7461;DHT22;6757;52.258;12.840;2024-03-29T01:39:28;5.10;99.90
7461;DHT22;6757;52.258;12.840;2024-03-29T01:41:54;5.00;99.90
7461;DHT22;6757;52.258;12.840;2024-03-29T01:44:20;5.00;99.90
7461;DHT22;6757;52.258;12.840;2024-03-29T01:46:47;4.90;99.90
7461;DHT22;6757;52.258;12.840;2024-03-29T01:49:13;4.40;99.90
7461;DHT22;6757;52.258;12.840;2024-03-29T01:51:41;4.90;99.90
7461;DHT22;6757;52.258;12.840;2024-03-29T01:54:10;4.80;99.90
7461;DHT22;6757;52.258;12.840;2024-03-29T01:56:39;4.80;99.90
7461;DHT22;6757;52.258;12.840;2024-03-29T01:59:12;4.80;99.90
7461;DHT22;6757;52.258;12.840;2024-03-29T02:01:41;4.70;99.90
7461;DHT22;6757;52.258;12.840;2024-03-29T02:04:08;4.70;99.90
7461;DHT22;6757;52.258;12.840;2024-03-29T02:06:36;4.70;99.90
7461;DHT22;6757;52.258;12.840;2024-03-29T02:09:03;4.80;99.90
7461;DHT22;6757;52.258;12.840;2024-03-29T02:11:32;4.60;99.90
7461;DHT22;6757;52.258;12.840;2024-03-29T02:13:58;4.30;99.90
7461;DHT22;6757;52.258;12.840;2024-03-29T02:16:24;4.50;99.90
7461;DHT22;6757;52.258;12.840;2024-03-29T02:18:51;4.50;99.90
7461;DHT22;6757;52.258;12.840;2024-03-29T02:21:17;4.40;99.90
7461;DHT22;6757;52.258;12.840;2024-03-29T02:23:47;4.30;99.90
7461;DHT22;6757;52.258;12.840;2024-03-29T02:26:17;4.30;99.90
7461;DHT22;6757;52.258;12.840;2024-03-29T02:28:43;4.30;99.90
7461;DHT22;6757;52.258;12.840;2024-03-29T02:33:37;4.20;99.90
7461;DHT22;6757;52.258;12.840;2024-03-29T02:36:04;4.10;99.90
7461;DHT22;6757;52.258;12.840;2024-03-29T02:38:31;4.00;99.90
7461;DHT22;6757;52.258;12.840;2024-03-29T02:40:58;4.00;99.90
7461;DHT22;6757;52.258;12.840;2024-03-29T02:43:26;4.00;99.90
7461;DHT22;6757;52.258;12.840;2024-03-29T02:45:52;3.80;99.90
7461;DHT22;6757;52.258;12.840;2024-03-29T02:48:19;4.00;99.90
7461;DHT22;6757;52.258;12.840;2024-03-29T02:50:45;3.80;99.90
7461;DHT22;6757;52.258;12.840;2024-03-29T02:53:11;3.70;99.90
7461;DHT22;6757;52.258;12.840;2024-03-29T02:55:37;2.70;99.90
7461;DHT22;6757;52.258;12.840;2024-03-29T02:58:04;3.70;99.90
7461;DHT22;6757;52.258;12.840;2024-03-29T03:00:33;3.70;99.90
7461;DHT22;6757;52.258;12.840;2024-03-29T03:02:59;3.50;99.90
7461;DHT22;6757;52.258;12.840;2024-03-29T03:05:26;3.60;99.90
7461;DHT22;6757;52.258;12.840;2024-03-29T03:07:51;3.20;99.90
7461;DHT22;6757;52.258;12.840;2024-03-29T03:10:35;2.60;99.90
7461;DHT22;6757;52.258;12.840;2024-03-29T03:13:19;3.60;99.90
7461;DHT22;6757;52.258;12.840;2024-03-29T03:15:47;4.60;99.90
7461;DHT22;6757;52.258;12.840;2024-03-29T03:18:14;3.50;99.90
7461;DHT22;6757;52.258;12.840;2024-03-29T03:20:40;3.50;99.90
7461;DHT22;6757;52.258;12.840;2024-03-29T03:23:06;3.40;99.90
7461;DHT22;6757;52.258;12.840;2024-03-29T03:25:32;2.80;99.90
7461;DHT22;6757;52.258;12.840;2024-03-29T03:27:59;3.40;99.90
7461;DHT22;6757;52.258;12.840;2024-03-29T03:30:24;3.20;99.90
7461;DHT22;6757;52.258;12.840;2024-03-29T03:32:52;3.30;99.90
7461;DHT22;6757;52.258;12.840;2024-03-29T03:35:18;2.70;99.90
7461;DHT22;6757;52.258;12.840;2024-03-29T03:37:45;3.10;99.90
7461;DHT22;6757;52.258;12.840;2024-03-29T03:40:11;3.10;99.90
7461;DHT22;6757;52.258;12.840;2024-03-29T03:42:38;3.20;99.90
7461;DHT22;6757;52.258;12.840;2024-03-29T03:45:04;3.20;99.90
7461;DHT22;6757;52.258;12.840;2024-03-29T03:47:31;3.10;99.90
7461;DHT22;6757;52.258;12.840;2024-03-29T03:49:58;4.10;99.90
7461;DHT22;6757;52.258;12.840;2024-03-29T03:52:24;3.10;99.90
7461;DHT22;6757;52.258;12.840;2024-03-29T03:54:50;3.10;99.90
7461;DHT22;6757;52.258;12.840;2024-03-29T03:57:17;2.90;99.90
7461;DHT22;6757;52.258;12.840;2024-03-29T03:59:42;3.00;99.90
7461;DHT22;6757;52.258;12.840;2024-03-29T04:02:09;2.90;99.90
7461;DHT22;6757;52.258;12.840;2024-03-29T04:04:35;2.90;99.90
7461;DHT22;6757;52.258;12.840;2024-03-29T04:07:03;3.00;99.90
7461;DHT22;6757;52.258;12.840;2024-03-29T04:09:29;2.90;99.90
7461;DHT22;6757;52.258;12.840;2024-03-29T04:11:55;2.90;99.90
7461;DHT22;6757;52.258;12.840;2024-03-29T04:14:21;2.90;99.90
7461;DHT22;6757;52.258;12.840;2024-03-29T04:16:48;2.90;99.90
7461;DHT22;6757;52.258;12.840;2024-03-29T04:19:14;2.90;99.90
7461;DHT22;6757;52.258;12.840;2024-03-29T04:21:40;2.80;99.90
7461;DHT22;6757;52.258;12.840;2024-03-29T04:24:07;2.80;99.90
7461;DHT22;6757;52.258;12.840;2024-03-29T04:26:35;2.80;99.90
7461;DHT22;6757;52.258;12.840;2024-03-29T04:29:02;2.80;99.90
7461;DHT22;6757;52.258;12.840;2024-03-29T04:31:29;2.80;99.90
7461;DHT22;6757;52.258;12.840;2024-03-29T04:33:55;3.40;99.90
7461;DHT22;6757;52.258;12.840;2024-03-29T04:36:21;3.20;99.90
7461;DHT22;6757;52.258;12.840;2024-03-29T04:38:47;2.40;99.90
7461;DHT22;6757;52.258;12.840;2024-03-29T04:41:15;2.90;99.90
7461;DHT22;6757;52.258;12.840;2024-03-29T04:43:43;2.70;99.90
7461;DHT22;6757;52.258;12.840;2024-03-29T04:46:12;2.90;99.90
7461;DHT22;6757;52.258;12.840;2024-03-29T04:48:41;2.60;99.90
7461;DHT22;6757;52.258;12.840;2024-03-29T04:51:09;2.80;99.90
7461;DHT22;6757;52.258;12.840;2024-03-29T04:53:36;2.80;99.90
7461;DHT22;6757;52.258;12.840;2024-03-29T04:56:04;2.90;99.90
7461;DHT22;6757;52.258;12.840;2024-03-29T04:58:32;2.80;99.90
7461;DHT22;6757;52.258;12.840;2024-03-29T05:00:59;2.60;99.90
7461;DHT22;6757;52.258;12.840;2024-03-29T05:03:26;2.80;99.90
7461;DHT22;6757;52.258;12.840;2024-03-29T05:05:53;2.80;99.90
7461;DHT22;6757;52.258;12.840;2024-03-29T05:08:20;2.80;99.90
7461;DHT22;6757;52.258;12.840;2024-03-29T05:10:48;2.80;99.90
7461;DHT22;6757;52.258;12.840;2024-03-29T05:13:16;2.90;99.90
7461;DHT22;6757;52.258;12.840;2024-03-29T05:15:45;3.00;99.90
7461;DHT22;6757;52.258;12.840;2024-03-29T05:18:12;2.90;99.90
7461;DHT22;6757;52.258;12.840;2024-03-29T05:20:39;4.30;99.90
7461;DHT22;6757;52.258;12.840;2024-03-29T05:23:12;3.00;99.90
7461;DHT22;6757;52.258;12.840;2024-03-29T05:25:39;3.10;99.90
7461;DHT22;6757;52.258;12.840;2024-03-29T05:28:06;3.10;99.90
7461;DHT22;6757;52.258;12.840;2024-03-29T05:30:34;3.30;99.90
7461;DHT22;6757;52.258;12.840;2024-03-29T05:33:02;3.20;99.90
7461;DHT22;6757;52.258;12.840;2024-03-29T05:35:29;3.20;99.90
7461;DHT22;6757;52.258;12.840;2024-03-29T05:37:56;3.20;99.90
7461;DHT22;6757;52.258;12.840;2024-03-29T05:40:23;2.80;99.90
7461;DHT22;6757;52.258;12.840;2024-03-29T05:42:53;3.30;99.90
7461;DHT22;6757;52.258;12.840;2024-03-29T05:45:24;3.40;99.90
7461;DHT22;6757;52.258;12.840;2024-03-29T05:47:53;3.40;99.90
7461;DHT22;6757;52.258;12.840;2024-03-29T05:50:22;3.50;99.90
7461;DHT22;6757;52.258;12.840;2024-03-29T05:52:49;3.40;99.90
7461;DHT22;6757;52.258;12.840;2024-03-29T05:55:16;3.50;99.90
7461;DHT22;6757;52.258;12.840;2024-03-29T05:57:43;3.60;99.90
7461;DHT22;6757;52.258;12.840;2024-03-29T06:00:12;3.60;99.90
7461;DHT22;6757;52.258;12.840;2024-03-29T06:02:40;3.80;99.90
7461;DHT22;6757;52.258;12.840;2024-03-29T06:05:08;3.70;99.90
7461;DHT22;6757;52.258;12.840;2024-03-29T06:07:36;3.80;99.90
7461;DHT22;6757;52.258;12.840;2024-03-29T06:10:04;3.90;99.90
7461;DHT22;6757;52.258;12.840;2024-03-29T06:12:33;4.20;99.90
7461;DHT22;6757;52.258;12.840;2024-03-29T06:15:00;4.30;99.90
7461;DHT22;6757;52.258;12.840;2024-03-29T06:17:44;4.40;99.90
7461;DHT22;6757;52.258;12.840;2024-03-29T06:20:12;4.50;99.90
7461;DHT22;6757;52.258;12.840;2024-03-29T06:22:40;4.60;99.90
7461;DHT22;6757;52.258;12.840;2024-03-29T06:25:07;4.70;99.90
7461;DHT22;6757;52.258;12.840;2024-03-29T06:27:35;4.70;99.90
7461;DHT22;6757;52.258;12.840;2024-03-29T06:30:03;5.70;99.90
7461;DHT22;6757;52.258;12.840;2024-03-29T06:32:31;4.80;99.90
7461;DHT22;6757;52.258;12.840;2024-03-29T06:34:58;4.90;99.90
7461;DHT22;6757;52.258;12.840;2024-03-29T06:37:25;5.60;99.90
7461;DHT22;6757;52.258;12.840;2024-03-29T06:39:55;5.00;99.90
7461;DHT22;6757;52.258;12.840;2024-03-29T06:42:21;5.10;99.90
7461;DHT22;6757;52.258;12.840;2024-03-29T06:44:48;5.10;99.90
7461;DHT22;6757;52.258;12.840;2024-03-29T06:47:15;5.20;99.90
7461;DHT22;6757;52.258;12.840;2024-03-29T06:49:41;5.20;99.90
7461;DHT22;6757;52.258;12.840;2024-03-29T06:52:08;5.30;99.90
7461;DHT22;6757;52.258;12.840;2024-03-29T06:54:35;6.00;99.90
7461;DHT22;6757;52.258;12.840;2024-03-29T06:57:04;6.50;99.90
7461;DHT22;6757;52.258;12.840;2024-03-29T06:59:31;5.50;99.90
7461;DHT22;6757;52.258;12.840;2024-03-29T07:01:58;5.60;99.90
7461;DHT22;6757;52.258;12.840;2024-03-29T07:04:25;5.70;99.90
7461;DHT22;6757;52.258;12.840;2024-03-29T07:06:53;5.80;99.90
7461;DHT22;6757;52.258;12.840;2024-03-29T07:09:21;5.90;99.90
7461;DHT22;6757;52.258;12.840;2024-03-29T07:11:49;6.10;99.90
7461;DHT22;6757;52.258;12.840;2024-03-29T07:14:19;6.20;99.90
7461;DHT22;6757;52.258;12.840;2024-03-29T07:16:46;6.30;99.90
7461;DHT22;6757;52.258;12.840;2024-03-29T07:19:13;6.40;99.90
7461;DHT22;6757;52.258;12.840;2024-03-29T07:21:41;6.60;99.90
7461;DHT22;6757;52.258;12.840;2024-03-29T07:24:08;6.60;99.90
7461;DHT22;6757;52.258;12.840;2024-03-29T07:26:35;6.50;99.90
7461;DHT22;6757;52.258;12.840;2024-03-29T07:29:02;6.30;99.90
7461;DHT22;6757;52.258;12.840;2024-03-29T07:31:32;7.00;99.90
7461;DHT22;6757;52.258;12.840;2024-03-29T07:33:59;8.60;99.90
7461;DHT22;6757;52.258;12.840;2024-03-29T07:36:26;7.40;99.90
7461;DHT22;6757;52.258;12.840;2024-03-29T07:38:57;7.50;99.90
7461;DHT22;6757;52.258;12.840;2024-03-29T07:41:27;7.50;99.90
7461;DHT22;6757;52.258;12.840;2024-03-29T07:43:55;7.50;99.90
7461;DHT22;6757;52.258;12.840;2024-03-29T07:46:28;7.50;99.90
7461;DHT22;6757;52.258;12.840;2024-03-29T07:49:04;7.50;99.90
7461;DHT22;6757;52.258;12.840;2024-03-29T07:51:33;7.50;99.90
7461;DHT22;6757;52.258;12.840;2024-03-29T07:54:00;7.30;99.90
7461;DHT22;6757;52.258;12.840;2024-03-29T07:56:26;7.50;99.90
7461;DHT22;6757;52.258;12.840;2024-03-29T07:58:54;6.90;99.90
7461;DHT22;6757;52.258;12.840;2024-03-29T08:01:21;7.50;99.90
7461;DHT22;6757;52.258;12.840;2024-03-29T08:03:50;7.70;99.90
7461;DHT22;6757;52.258;12.840;2024-03-29T08:06:20;8.30;99.90
7461;DHT22;6757;52.258;12.840;2024-03-29T08:08:48;7.60;99.90
7461;DHT22;6757;52.258;12.840;2024-03-29T08:11:15;7.50;99.90
7461;DHT22;6757;52.258;12.840;2024-03-29T08:13:42;7.70;99.90
7461;DHT22;6757;52.258;12.840;2024-03-29T08:16:09;7.80;99.90
7461;DHT22;6757;52.258;12.840;2024-03-29T08:18:36;7.80;99.90
7461;DHT22;6757;52.258;12.840;2024-03-29T08:21:04;8.10;99.90
7461;DHT22;6757;52.258;12.840;2024-03-29T08:23:38;8.60;99.90
7461;DHT22;6757;52.258;12.840;2024-03-29T08:26:06;8.90;99.90
7461;DHT22;6757;52.258;12.840;2024-03-29T08:28:32;9.00;99.90
7461;DHT22;6757;52.258;12.840;2024-03-29T08:31:01;9.60;99.90
7461;DHT22;6757;52.258;12.840;2024-03-29T08:33:29;9.10;99.90
7461;DHT22;6757;52.258;12.840;2024-03-29T08:35:57;9.20;99.90
7461;DHT22;6757;52.258;12.840;2024-03-29T08:38:24;9.20;99.90
7461;DHT22;6757;52.258;12.840;2024-03-29T08:40:52;9.20;99.90
7461;DHT22;6757;52.258;12.840;2024-03-29T08:43:19;9.30;99.90
7461;DHT22;6757;52.258;12.840;2024-03-29T08:45:46;10.80;99.90
7461;DHT22;6757;52.258;12.840;2024-03-29T08:48:13;9.40;99.90
7461;DHT22;6757;52.258;12.840;2024-03-29T08:50:40;9.60;99.90
7461;DHT22;6757;52.258;12.840;2024-03-29T08:53:07;9.20;99.90
7461;DHT22;6757;52.258;12.840;2024-03-29T08:55:34;9.50;99.90
7461;DHT22;6757;52.258;12.840;2024-03-29T08:58:03;9.60;99.90
7461;DHT22;6757;52.258;12.840;2024-03-29T09:00:31;9.70;99.90
7461;DHT22;6757;52.258;12.840;2024-03-29T09:02:57;9.70;99.90
7461;DHT22;6757;52.258;12.840;2024-03-29T09:05:25;9.80;99.90
7461;DHT22;6757;52.258;12.840;2024-03-29T09:07:53;9.90;99.90
7461;DHT22;6757;52.258;12.840;2024-03-29T09:10:20;10.00;99.90
7461;DHT22;6757;52.258;12.840;2024-03-29T09:12:46;10.00;99.90
7461;DHT22;6757;52.258;12.840;2024-03-29T09:15:14;10.20;99.90
7461;DHT22;6757;52.258;12.840;2024-03-29T09:17:42;10.20;99.90
7461;DHT22;6757;52.258;12.840;2024-03-29T09:20:10;10.30;99.90
7461;DHT22;6757;52.258;12.840;2024-03-29T09:22:37;10.30;99.90
7461;DHT22;6757;52.258;12.840;2024-03-29T09:25:04;10.00;99.90
7461;DHT22;6757;52.258;12.840;2024-03-29T09:27:32;10.40;99.90
7461;DHT22;6757;52.258;12.840;2024-03-29T09:30:00;10.30;99.90
7461;DHT22;6757;52.258;12.840;2024-03-29T09:32:29;10.30;99.90
7461;DHT22;6757;52.258;12.840;2024-03-29T09:34:55;10.40;99.90
7461;DHT22;6757;52.258;12.840;2024-03-29T09:37:22;10.30;99.90
7461;DHT22;6757;52.258;12.840;2024-03-29T09:39:49;10.40;99.90
7461;DHT22;6757;52.258;12.840;2024-03-29T09:42:16;10.40;99.90
7461;DHT22;6757;52.258;12.840;2024-03-29T09:44:44;10.50;99.90
7461;DHT22;6757;52.258;12.840;2024-03-29T09:47:15;10.40;99.90
7461;DHT22;6757;52.258;12.840;2024-03-29T09:49:47;10.30;99.90
7461;DHT22;6757;52.258;12.840;2024-03-29T09:52:16;10.40;99.90
7461;DHT22;6757;52.258;12.840;2024-03-29T09:54:43;10.40;99.90
7461;DHT22;6757;52.258;12.840;2024-03-29T09:57:10;10.40;99.90
7461;DHT22;6757;52.258;12.840;2024-03-29T09:59:38;10.30;99.90
7461;DHT22;6757;52.258;12.840;2024-03-29T10:02:14;10.30;99.90
7461;DHT22;6757;52.258;12.840;2024-03-29T10:04:42;10.30;99.90
7461;DHT22;6757;52.258;12.840;2024-03-29T10:07:12;11.50;99.90
7461;DHT22;6757;52.258;12.840;2024-03-29T10:09:41;10.00;99.90
7461;DHT22;6757;52.258;12.840;2024-03-29T10:12:08;10.20;99.90
7461;DHT22;6757;52.258;12.840;2024-03-29T10:14:43;10.20;99.90
7461;DHT22;6757;52.258;12.840;2024-03-29T10:17:15;9.90;99.90
7461;DHT22;6757;52.258;12.840;2024-03-29T10:19:43;10.10;99.90
7461;DHT22;6757;52.258;12.840;2024-03-29T10:22:11;9.90;99.90
7461;DHT22;6757;52.258;12.840;2024-03-29T10:24:38;10.00;99.90
7461;DHT22;6757;52.258;12.840;2024-03-29T10:27:05;9.70;99.90
7461;DHT22;6757;52.258;12.840;2024-03-29T10:29:32;10.00;99.90
7461;DHT22;6757;52.258;12.840;2024-03-29T10:32:00;10.00;99.90
7461;DHT22;6757;52.258;12.840;2024-03-29T10:34:29;10.00;99.90
7461;DHT22;6757;52.258;12.840;2024-03-29T10:37:00;10.20;99.90
7461;DHT22;6757;52.258;12.840;2024-03-29T10:39:30;10.00;99.90
7461;DHT22;6757;52.258;12.840;2024-03-29T10:41:59;9.80;99.90
7461;DHT22;6757;52.258;12.840;2024-03-29T10:44:27;9.90;99.90
7461;DHT22;6757;52.258;12.840;2024-03-29T10:46:56;9.70;99.90
7461;DHT22;6757;52.258;12.840;2024-03-29T10:49:24;9.80;99.90
7461;DHT22;6757;52.258;12.840;2024-03-29T10:51:52;9.70;99.90
7461;DHT22;6757;52.258;12.840;2024-03-29T10:54:22;9.70;99.90
7461;DHT22;6757;52.258;12.840;2024-03-29T10:56:59;9.70;99.90
7461;DHT22;6757;52.258;12.840;2024-03-29T10:59:32;9.70;99.90
7461;DHT22;6757;52.258;12.840;2024-03-29T11:02:13;9.70;99.90
7461;DHT22;6757;52.258;12.840;2024-03-29T11:04:51;9.80;99.90
7461;DHT22;6757;52.258;12.840;2024-03-29T11:07:20;10.20;99.90
7461;DHT22;6757;52.258;12.840;2024-03-29T11:09:52;9.70;99.90
7461;DHT22;6757;52.258;12.840;2024-03-29T11:12:20;9.50;99.90
7461;DHT22;6757;52.258;12.840;2024-03-29T11:14:55;9.30;99.90
7461;DHT22;6757;52.258;12.840;2024-03-29T11:17:26;9.70;99.90
7461;DHT22;6757;52.258;12.840;2024-03-29T11:19:56;9.70;99.90
7461;DHT22;6757;52.258;12.840;2024-03-29T11:22:23;9.70;99.90
7461;DHT22;6757;52.258;12.840;2024-03-29T11:24:50;9.70;99.90
7461;DHT22;6757;52.258;12.840;2024-03-29T11:27:23;10.70;99.90
7461;DHT22;6757;52.258;12.840;2024-03-29T11:29:52;9.70;99.90
7461;DHT22;6757;52.258;12.840;2024-03-29T11:32:33;9.80;99.90
7461;DHT22;6757;52.258;12.840;2024-03-29T11:35:01;9.70;99.90
7461;DHT22;6757;52.258;12.840;2024-03-29T11:37:29;9.90;99.90
7461;DHT22;6757;52.258;12.840;2024-03-29T11:39:58;9.70;99.90
7461;DHT22;6757;52.258;12.840;2024-03-29T11:42:37;9.90;99.90
7461;DHT22;6757;52.258;12.840;2024-03-29T11:45:05;9.50;99.90
7461;DHT22;6757;52.258;12.840;2024-03-29T11:47:36;10.00;99.90
7461;DHT22;6757;52.258;12.840;2024-03-29T11:50:05;10.00;99.90
7461;DHT22;6757;52.258;12.840;2024-03-29T11:52:33;10.10;99.90
7461;DHT22;6757;52.258;12.840;2024-03-29T11:55:00;10.20;99.90
7461;DHT22;6757;52.258;12.840;2024-03-29T11:57:27;11.30;99.90
7461;DHT22;6757;52.258;12.840;2024-03-29T11:59:57;11.10;99.90
7461;DHT22;6757;52.258;12.840;2024-03-29T12:02:23;10.50;99.90
7461;DHT22;6757;52.258;12.840;2024-03-29T12:04:50;10.70;99.90
7461;DHT22;6757;52.258;12.840;2024-03-29T12:07:17;10.60;99.90
7461;DHT22;6757;52.258;12.840;2024-03-29T12:09:44;11.80;99.90
7461;DHT22;6757;52.258;12.840;2024-03-29T12:12:11;10.70;99.90
7461;DHT22;6757;52.258;12.840;2024-03-29T12:14:42;10.80;99.90
7461;DHT22;6757;52.258;12.840;2024-03-29T12:17:12;10.80;99.90
7461;DHT22;6757;52.258;12.840;2024-03-29T12:19:39;10.90;99.90
7461;DHT22;6757;52.258;12.840;2024-03-29T12:22:07;10.90;99.90
7461;DHT22;6757;52.258;12.840;2024-03-29T12:24:35;11.10;99.90
7461;DHT22;6757;52.258;12.840;2024-03-29T12:27:02;10.90;99.90
7461;DHT22;6757;52.258;12.840;2024-03-29T12:29:28;11.20;99.90
7461;DHT22;6757;52.258;12.840;2024-03-29T12:31:59;11.30;99.90
7461;DHT22;6757;52.258;12.840;2024-03-29T12:34:27;11.40;99.90
7461;DHT22;6757;52.258;12.840;2024-03-29T12:36:54;11.60;99.90
7461;DHT22;6757;52.258;12.840;2024-03-29T12:39:23;11.70;99.90
7461;DHT22;6757;52.258;12.840;2024-03-29T12:41:51;12.60;99.90
7461;DHT22;6757;52.258;12.840;2024-03-29T12:44:21;11.90;99.90
7461;DHT22;6757;52.258;12.840;2024-03-29T12:46:48;12.10;99.90
7461;DHT22;6757;52.258;12.840;2024-03-29T12:49:15;12.10;99.90
7461;DHT22;6757;52.258;12.840;2024-03-29T12:51:44;12.20;99.90
7461;DHT22;6757;52.258;12.840;2024-03-29T12:54:11;12.20;99.90
7461;DHT22;6757;52.258;12.840;2024-03-29T12:56:37;12.20;99.90
7461;DHT22;6757;52.258;12.840;2024-03-29T12:59:05;12.30;99.90
7461;DHT22;6757;52.258;12.840;2024-03-29T13:01:33;12.30;99.90
7461;DHT22;6757;52.258;12.840;2024-03-29T13:03:59;12.30;99.90
7461;DHT22;6757;52.258;12.840;2024-03-29T13:06:26;12.20;99.90
7461;DHT22;6757;52.258;12.840;2024-03-29T13:08:54;12.40;99.90
7461;DHT22;6757;52.258;12.840;2024-03-29T13:11:22;12.20;99.90
7461;DHT22;6757;52.258;12.840;2024-03-29T13:13:49;12.50;99.90
7461;DHT22;6757;52.258;12.840;2024-03-29T13:16:15;12.50;99.90
7461;DHT22;6757;52.258;12.840;2024-03-29T13:18:42;12.60;99.90
7461;DHT22;6757;52.258;12.840;2024-03-29T13:21:09;12.70;99.90
7461;DHT22;6757;52.258;12.840;2024-03-29T13:23:35;12.70;99.90
7461;DHT22;6757;52.258;12.840;2024-03-29T13:26:04;12.60;99.90
7461;DHT22;6757;52.258;12.840;2024-03-29T13:28:31;13.20;99.90
7461;DHT22;6757;52.258;12.840;2024-03-29T13:30:58;12.80;99.90
7461;DHT22;6757;52.258;12.840;2024-03-29T13:33:24;13.00;99.90
7461;DHT22;6757;52.258;12.840;2024-03-29T13:35:52;13.10;99.90
7461;DHT22;6757;52.258;12.840;2024-03-29T13:38:20;13.10;99.90
7461;DHT22;6757;52.258;12.840;2024-03-29T13:40:48;13.20;99.90
7461;DHT22;6757;52.258;12.840;2024-03-29T13:43:17;13.30;99.90
7461;DHT22;6757;52.258;12.840;2024-03-29T13:45:43;13.30;99.90
7461;DHT22;6757;52.258;12.840;2024-03-29T13:48:10;13.60;99.90
7461;DHT22;6757;52.258;12.840;2024-03-29T13:50:37;14.00;99.90
7461;DHT22;6757;52.258;12.840;2024-03-29T13:53:04;14.40;99.90
7461;DHT22;6757;52.258;12.840;2024-03-29T13:55:30;15.40;99.90
7461;DHT22;6757;52.258;12.840;2024-03-29T13:57:57;16.30;99.90
7461;DHT22;6757;52.258;12.840;2024-03-29T14:00:25;16.80;99.90
7461;DHT22;6757;52.258;12.840;2024-03-29T14:02:52;17.00;99.90
7461;DHT22;6757;52.258;12.840;2024-03-29T14:05:19;17.10;99.90
7461;DHT22;6757;52.258;12.840;2024-03-29T14:07:44;16.90;99.90
7461;DHT22;6757;52.258;12.840;2024-03-29T14:10:13;17.30;99.90
7461;DHT22;6757;52.258;12.840;2024-03-29T14:12:40;17.70;99.90
7461;DHT22;6757;52.258;12.840;2024-03-29T14:15:07;17.00;99.90
7461;DHT22;6757;52.258;12.840;2024-03-29T14:17:36;16.10;99.90
7461;DHT22;6757;52.258;12.840;2024-03-29T14:20:03;16.60;99.90
7461;DHT22;6757;52.258;12.840;2024-03-29T14:22:30;16.00;99.90
7461;DHT22;6757;52.258;12.840;2024-03-29T14:24:59;16.00;99.90
7461;DHT22;6757;52.258;12.840;2024-03-29T14:27:28;16.10;99.90
7461;DHT22;6757;52.258;12.840;2024-03-29T14:29:55;16.00;99.90
7461;DHT22;6757;52.258;12.840;2024-03-29T14:32:22;16.90;99.90
7461;DHT22;6757;52.258;12.840;2024-03-29T14:34:50;16.20;99.90
7461;DHT22;6757;52.258;12.840;2024-03-29T14:37:17;16.30;99.90
7461;DHT22;6757;52.258;12.840;2024-03-29T14:39:44;16.30;99.90
7461;DHT22;6757;52.258;12.840;2024-03-29T14:42:11;16.40;99.90
7461;DHT22;6757;52.258;12.840;2024-03-29T14:44:41;16.60;99.90
7461;DHT22;6757;52.258;12.840;2024-03-29T14:47:09;16.60;99.90
7461;DHT22;6757;52.258;12.840;2024-03-29T14:49:36;16.70;99.90
7461;DHT22;6757;52.258;12.840;2024-03-29T14:52:05;16.70;99.90
7461;DHT22;6757;52.258;12.840;2024-03-29T14:54:31;16.60;99.90
7461;DHT22;6757;52.258;12.840;2024-03-29T14:56:58;17.20;99.90
7461;DHT22;6757;52.258;12.840;2024-03-29T14:59:26;17.00;99.90
7461;DHT22;6757;52.258;12.840;2024-03-29T15:01:55;16.10;99.90
7461;DHT22;6757;52.258;12.840;2024-03-29T15:04:22;16.00;99.90
7461;DHT22;6757;52.258;12.840;2024-03-29T15:06:49;15.80;99.90
7461;DHT22;6757;52.258;12.840;2024-03-29T15:09:17;15.50;99.90
7461;DHT22;6757;52.258;12.840;2024-03-29T15:11:44;15.50;99.90
7461;DHT22;6757;52.258;12.840;2024-03-29T15:14:10;15.30;99.90
7461;DHT22;6757;52.258;12.840;2024-03-29T15:16:37;15.30;99.90
7461;DHT22;6757;52.258;12.840;2024-03-29T15:19:04;15.20;99.90
7461;DHT22;6757;52.258;12.840;2024-03-29T15:21:31;15.20;99.90
7461;DHT22;6757;52.258;12.840;2024-03-29T15:23:57;15.10;99.90
7461;DHT22;6757;52.258;12.840;2024-03-29T15:26:25;15.80;99.90
7461;DHT22;6757;52.258;12.840;2024-03-29T15:28:52;15.00;99.90
7461;DHT22;6757;52.258;12.840;2024-03-29T15:31:34;15.20;99.90
7461;DHT22;6757;52.258;12.840;2024-03-29T15:34:02;14.90;99.90
7461;DHT22;6757;52.258;12.840;2024-03-29T15:36:30;15.00;99.90
7461;DHT22;6757;52.258;12.840;2024-03-29T15:38:57;14.70;99.90
7461;DHT22;6757;52.258;12.840;2024-03-29T15:41:32;14.70;99.90
7461;DHT22;6757;52.258;12.840;2024-03-29T15:43:59;14.80;99.90
7461;DHT22;6757;52.258;12.840;2024-03-29T15:46:27;15.00;99.90
7461;DHT22;6757;52.258;12.840;2024-03-29T15:48:54;14.70;99.90
7461;DHT22;6757;52.258;12.840;2024-03-29T15:51:22;14.60;99.90
7461;DHT22;6757;52.258;12.840;2024-03-29T15:53:49;14.60;99.90
7461;DHT22;6757;52.258;12.840;2024-03-29T15:56:17;14.50;99.90
7461;DHT22;6757;52.258;12.840;2024-03-29T15:58:46;14.40;99.90
7461;DHT22;6757;52.258;12.840;2024-03-29T16:01:14;14.50;99.90